This is the latest recevied weather packets stored in our database for station/object OE9XVI-6. If no packets are shown the sender has not sent any weather packets the latest 10 day(s).
| Time | Temp. | Humidity | Pressure | Rain* | Wind** | Luminosity | Snow |
|---|---|---|---|---|---|---|---|
| 1777850822 | 10.56° C | 71% | 1017.6 hPa | 0 mm | - | - | - |
| 1777849618 | 10.56° C | 72% | 1017.7 hPa | 0 mm | - | - | - |
| 1777849018 | 10.56° C | 73% | 1017.7 hPa | 0 mm | - | - | - |
| 1777848418 | 10.56° C | 74% | 1017.7 hPa | 0 mm | - | - | - |
| 1777847218 | 10.56° C | 76% | 1017.7 hPa | 0 mm | - | - | - |
| 1777846019 | 10.56° C | 76% | 1017.6 hPa | 0 mm | - | - | - |
| 1777844218 | 11.11° C | 73% | 1017.5 hPa | 0 mm | - | - | - |
| 1777842418 | 11.67° C | 68% | 1017.4 hPa | 0 mm | - | - | - |
| 1777841218 | 12.22° C | 66% | 1017.1 hPa | 0 mm | - | - | - |
| 1777840018 | 12.22° C | 65% | 1017.1 hPa | 0 mm | - | - | - |
| 1777839418 | 12.78° C | 63% | 1017.2 hPa | 0 mm | - | - | - |
| 1777838819 | 12.78° C | 64% | 1017.1 hPa | 0 mm | - | - | - |
| 1777838218 | 13.89° C | 59% | 1017 hPa | 0 mm | - | - | - |
| 1777837618 | 15° C | 49% | 1016.9 hPa | 0 mm | - | - | - |
| 1777837023 | 15.56° C | 48% | 1016.9 hPa | 0 mm | - | - | - |
| 1777836419 | 15.56° C | 44% | 1016.8 hPa | 0 mm | - | - | - |
| 1777834619 | 15.56° C | 45% | 1016.5 hPa | 0 mm | - | - | - |
| 1777833419 | 16.11° C | 40% | 1016.4 hPa | 0 mm | - | - | - |
| 1777832819 | 16.11° C | 38% | 1016.4 hPa | 0 mm | - | - | - |
| 1777831619 | 17.22° C | 35% | 1016.4 hPa | 0 mm | - | - | - |
| 1777831019 | 17.22° C | 35% | 1016.4 hPa | 0 mm | - | - | - |
| 1777830419 | 17.78° C | 33% | 1016.4 hPa | 0 mm | - | - | - |
| 1777829820 | 18.33° C | 30% | 1016.3 hPa | 0 mm | - | - | - |
| 1777829219 | 19.44° C | 30% | 1016.3 hPa | 0 mm | - | - | - |
| 1777828624 | 20° C | 31% | 1016.3 hPa | 0 mm | - | - | - |
* Rain latest hour (hover to see other rain measurements)
** Current wind speed in m/s (hover to see current wind gust speed)